Time;durP1;ratioP1;P1;durP2;ratioP2;P2;SDS_P1;SDS_P2;PMS_P1;PMS_P2;Temp;Humidity;BMP_temperature;BMP_pressure;BME280_temperature;BME280_humidity;BME280_pressure;Samples;Min_cycle;Max_cycle;Signal;HPM_P1;HPM_P2
2023/06/15 00:01:31;;;;;;;7.40;4.25;;;;;;;23.23;51.17;98608.81;4923054;29;20038;-82
2023/06/15 00:03:57;;;;;;;9.50;5.53;;;;;;;23.22;51.36;98616.00;4954919;29;20031;-82
2023/06/15 00:06:22;;;;;;;10.20;5.25;;;;;;;23.19;51.18;98619.06;4956143;28;20038;-83
2023/06/15 00:08:48;;;;;;;7.97;5.57;;;;;;;23.14;51.61;98613.53;4938954;29;20054;-82
2023/06/15 00:11:13;;;;;;;8.18;4.82;;;;;;;23.17;51.67;98621.09;4954875;29;20036;-82
2023/06/15 00:13:39;;;;;;;8.15;4.30;;;;;;;23.16;51.57;98624.78;4954889;28;20043;-82
2023/06/15 00:16:05;;;;;;;7.20;4.93;;;;;;;23.14;51.60;98621.50;4954577;29;20043;-82
2023/06/15 00:18:32;;;;;;;5.00;3.70;;;;;;;23.10;51.51;98621.09;4955123;29;20086;-82
2023/06/15 00:20:57;;;;;;;6.20;3.95;;;;;;;23.10;51.86;98614.94;4954638;29;20035;-84
2023/06/15 00:23:26;;;;;;;4.47;3.35;;;;;;;23.08;51.92;98612.47;4938531;29;20046;-83
2023/06/15 00:25:53;;;;;;;6.03;3.28;;;;;;;23.10;51.88;98613.09;4954571;29;20142;-82
2023/06/15 00:28:18;;;;;;;3.53;2.92;;;;;;;23.11;51.91;98627.22;4938277;29;20035;-82
2023/06/15 00:30:44;;;;;;;5.88;3.20;;;;;;;23.09;51.80;98616.78;4954496;28;20380;-82
2023/06/15 00:33:09;;;;;;;4.35;3.13;;;;;;;23.09;51.48;98610.66;4955794;28;20047;-83
2023/06/15 00:35:35;;;;;;;7.22;3.03;;;;;;;23.07;51.95;98612.63;4955276;28;20042;-83
2023/06/15 00:38:00;;;;;;;3.45;2.60;;;;;;;23.04;51.69;98602.38;4938584;29;20039;-84
2023/06/15 00:40:26;;;;;;;4.15;2.45;;;;;;;23.06;51.60;98617.16;4955295;28;20038;-83
2023/06/15 00:42:51;;;;;;;5.20;2.60;;;;;;;23.04;51.95;98608.56;4955273;28;20035;-83
2023/06/15 00:45:17;;;;;;;6.35;2.40;;;;;;;22.95;52.02;98605.25;4953937;29;20063;-83
2023/06/15 00:47:42;;;;;;;2.85;2.35;;;;;;;22.97;51.91;98605.03;4938955;29;20474;-83
2023/06/15 00:50:14;;;;;;;5.40;2.70;;;;;;;22.95;52.13;98620.41;4953560;29;20046;-83
2023/06/15 00:52:39;;;;;;;5.47;2.35;;;;;;;22.92;52.12;98613.63;4938241;29;20098;-83
2023/06/15 00:55:05;;;;;;;4.45;2.47;;;;;;;22.89;52.15;98608.69;4937832;29;20047;-84
2023/06/15 00:57:32;;;;;;;5.18;2.42;;;;;;;22.87;52.24;98609.94;4937565;29;20042;-83
2023/06/15 00:59:58;;;;;;;4.03;2.58;;;;;;;22.83;52.18;98604.16;4953883;29;20023;-83
2023/06/15 01:02:24;;;;;;;6.03;3.38;;;;;;;22.81;52.40;98605.41;4953932;29;20518;-83
2023/06/15 01:04:50;;;;;;;9.98;5.82;;;;;;;22.76;52.36;98606.81;4938078;29;20402;-83
2023/06/15 01:07:16;;;;;;;7.32;5.75;;;;;;;22.75;52.44;98604.34;4953615;29;20028;-83
2023/06/15 01:09:42;;;;;;;9.88;4.53;;;;;;;22.72;52.55;98597.59;4937795;29;20483;-83
2023/06/15 01:12:11;;;;;;;5.80;4.22;;;;;;;22.71;52.43;98603.13;4937754;29;20102;-82
2023/06/15 01:14:36;;;;;;;7.53;4.20;;;;;;;22.64;52.46;98600.41;4938126;29;20034;-83
2023/06/15 01:17:13;;;;;;;9.68;4.00;;;;;;;22.64;52.66;98603.06;4953704;29;20032;-83
2023/06/15 01:19:57;;;;;;;7.35;3.45;;;;;;;22.61;52.82;98590.16;4922971;29;20039;-83
2023/06/15 01:22:49;;;;;;;6.13;3.22;;;;;;;22.56;52.93;98590.75;4953503;29;20027;-81
2023/06/15 01:25:43;;;;;;;3.33;2.78;;;;;;;22.56;52.80;98590.75;4954608;28;20102;-83
2023/06/15 01:28:10;;;;;;;4.95;2.72;;;;;;;22.51;53.18;98590.53;4939786;28;20126;-83
2023/06/15 01:30:43;;;;;;;6.72;2.65;;;;;;;22.49;52.99;98594.44;4937442;29;20035;-82
2023/06/15 01:33:08;;;;;;;6.28;2.95;;;;;;;22.49;52.88;98600.56;4953891;29;20035;-84
2023/06/15 01:35:34;;;;;;;3.83;2.35;;;;;;;22.48;52.65;98598.91;4937095;29;20038;-83
2023/06/15 01:38:00;;;;;;;3.30;2.67;;;;;;;22.43;52.91;98595.22;4954194;28;20051;-82
2023/06/15 01:40:26;;;;;;;6.43;2.67;;;;;;;22.43;52.71;98597.88;4952974;28;20155;-83
2023/06/15 01:42:52;;;;;;;4.75;2.50;;;;;;;22.42;52.97;98604.22;4920766;29;20068;-83
2023/06/15 01:45:17;;;;;;;4.43;2.63;;;;;;;22.39;52.92;98603.59;4921287;29;20530;-81
2023/06/15 01:47:43;;;;;;;4.68;2.45;;;;;;;22.36;52.72;98596.00;4953715;29;20067;-82
2023/06/15 01:50:10;;;;;;;5.00;2.60;;;;;;;22.31;53.00;98597.59;4953253;29;20451;-82
2023/06/15 01:52:35;;;;;;;2.85;2.55;;;;;;;22.30;53.10;98595.97;4952949;28;20070;-83
2023/06/15 01:55:01;;;;;;;5.15;2.40;;;;;;;22.30;53.16;98596.78;4936913;29;20055;-83
2023/06/15 01:57:26;;;;;;;6.28;2.60;;;;;;;22.28;53.42;98601.47;4937111;29;20459;-83
2023/06/15 01:59:54;;;;;;;4.40;2.28;;;;;;;22.28;53.29;98604.13;4936971;29;20101;-82
2023/06/15 02:02:23;;;;;;;12.37;8.33;;;;;;;22.29;53.20;98599.63;4937296;29;20070;-84
2023/06/15 02:04:49;;;;;;;14.90;8.68;;;;;;;22.25;53.18;98603.66;4953152;28;20039;-83
2023/06/15 02:07:14;;;;;;;14.77;6.85;;;;;;;22.23;53.28;98599.38;4936722;29;20138;-84
2023/06/15 02:09:39;;;;;;;10.52;6.28;;;;;;;22.19;52.98;98597.31;4954321;28;20082;-83
2023/06/15 02:12:06;;;;;;;11.98;6.78;;;;;;;22.17;53.15;98600.16;4954442;28;20397;-85
2023/06/15 02:14:31;;;;;;;11.75;5.18;;;;;;;22.10;52.92;98596.63;4952964;29;20024;-83
2023/06/15 02:16:58;;;;;;;7.57;4.93;;;;;;;22.07;53.50;98594.34;4953029;28;20134;-85
2023/06/15 02:19:24;;;;;;;7.30;5.28;;;;;;;22.07;53.30;98601.53;4954077;28;20030;-84
2023/06/15 02:21:50;;;;;;;8.25;4.45;;;;;;;22.11;53.30;98605.44;4952759;29;20395;-84
2023/06/15 02:24:16;;;;;;;8.25;3.78;;;;;;;22.07;53.17;98594.34;4921149;29;20482;-84
2023/06/15 02:26:42;;;;;;;8.35;4.43;;;;;;;22.09;53.39;98599.47;4953019;28;20039;-84
2023/06/15 02:29:08;;;;;;;8.00;3.67;;;;;;;22.06;53.01;98595.41;4952384;29;20078;-83
2023/06/15 02:31:33;;;;;;;6.60;3.42;;;;;;;22.05;53.24;98599.06;4953898;28;20039;-84
2023/06/15 02:33:59;;;;;;;10.82;3.55;;;;;;;22.00;53.44;98593.50;4953836;28;20483;-85
2023/06/15 02:36:25;;;;;;;6.72;2.58;;;;;;;22.00;53.20;98593.50;4952892;29;20039;-84
2023/06/15 02:38:52;;;;;;;6.15;2.83;;;;;;;21.96;53.06;98592.25;4936969;29;20130;-84
2023/06/15 02:41:17;;;;;;;3.83;2.90;;;;;;;21.96;53.51;98592.25;4953071;29;20042;-84
2023/06/15 02:43:43;;;;;;;5.60;2.78;;;;;;;21.89;53.38;98586.88;4953584;28;20090;-83
2023/06/15 02:46:08;;;;;;;5.95;2.60;;;;;;;21.96;53.54;98592.25;4954105;29;20035;-83
2023/06/15 02:48:34;;;;;;;6.45;2.53;;;;;;;21.96;53.53;98593.06;4952990;29;20163;-84
2023/06/15 02:51:00;;;;;;;5.03;2.60;;;;;;;21.97;53.15;98586.75;4953992;28;20035;-84
2023/06/15 02:53:25;;;;;;;7.18;3.03;;;;;;;21.97;53.37;98581.41;4938588;29;20046;-84
2023/06/15 02:55:53;;;;;;;4.25;2.45;;;;;;;21.98;53.58;98582.22;4956309;29;20071;-84
2023/06/15 02:58:20;;;;;;;;;;;;;;;22.01;53.49;98588.00;4956630;29;20027;-84
2023/06/15 03:00:49;;;;;;;5.57;2.70;;;;;;;22.14;52.92;98589.91;4956088;29;19914;-74
2023/06/15 03:03:16;;;;;;;8.48;2.50;;;;;;;22.44;53.65;98588.88;4940293;29;20039;-73
2023/06/15 03:05:42;;;;;;;15.90;2.10;;;;;;;23.03;53.08;98585.59;4940083;29;20031;-75
2023/06/15 03:08:08;;;;;;;8.00;3.08;;;;;;;23.68;51.30;98593.09;4955893;29;20162;-77
2023/06/15 03:10:33;;;;;;;9.48;3.10;;;;;;;24.22;50.08;98590.38;4956656;28;20035;-76
2023/06/15 03:13:00;;;;;;;11.05;3.30;;;;;;;24.72;48.10;98596.00;4938989;29;20035;-71
2023/06/15 03:15:25;;;;;;;6.13;3.22;;;;;;;25.18;47.03;98586.91;4924734;29;20031;-72
2023/06/15 03:17:51;;;;;;;48.42;4.53;;;;;;;25.63;46.13;98594.84;4939905;29;20414;-69
2023/06/15 03:20:16;;;;;;;28.83;4.22;;;;;;;26.03;44.59;98591.00;4955746;29;20031;-73
2023/06/15 03:22:42;;;;;;;26.63;3.50;;;;;;;26.50;43.46;98595.84;4955613;29;20070;-72
2023/06/15 03:25:10;;;;;;;26.92;3.85;;;;;;;26.95;42.19;98594.72;4923413;29;20043;-72
2023/06/15 03:27:37;;;;;;;11.85;2.65;;;;;;;27.37;40.99;98589.38;4924123;29;20027;-70
2023/06/15 03:30:05;;;;;;;7.47;2.65;;;;;;;27.83;40.38;98590.47;4955397;29;20110;-74
2023/06/15 03:32:32;;;;;;;12.30;2.58;;;;;;;28.31;39.52;98591.31;4955611;29;20482;-71
2023/06/15 03:34:57;;;;;;;11.27;2.45;;;;;;;28.74;38.40;98590.03;4939555;29;20031;-70
2023/06/15 03:37:23;;;;;;;12.68;2.20;;;;;;;29.13;38.12;98584.84;4954942;29;20549;-71
2023/06/15 03:39:48;;;;;;;9.48;2.30;;;;;;;29.55;37.05;98578.31;4939056;29;20047;-72
2023/06/15 03:42:15;;;;;;;10.85;2.10;;;;;;;29.93;36.03;98577.56;4955166;29;20110;-73
2023/06/15 03:44:40;;;;;;;7.93;1.95;;;;;;;30.33;35.18;98581.09;4955583;29;20086;-72
2023/06/15 03:47:06;;;;;;;5.00;1.90;;;;;;;30.65;34.66;98583.09;4939412;29;20407;-75
2023/06/15 03:49:31;;;;;;;9.85;1.90;;;;;;;30.99;34.19;98577.53;4955306;29;20475;-74
2023/06/15 03:51:57;;;;;;;12.52;2.00;;;;;;;31.25;34.28;98575.09;4939047;29;20086;-74
2023/06/15 03:54:22;;;;;;;3.25;1.75;;;;;;;31.64;32.77;98575.69;4938966;29;20047;-76
2023/06/15 03:56:49;;;;;;;3.33;1.85;;;;;;;31.86;32.25;98580.97;4955880;28;20142;-77
2023/06/15 03:59:15;;;;;;;6.78;1.85;;;;;;;32.11;31.85;98584.94;4939106;29;20434;-78
2023/06/15 04:01:40;;;;;;;3.85;1.80;;;;;;;32.35;31.55;98585.31;4956023;28;20031;-77
2023/06/15 04:04:06;;;;;;;5.00;1.80;;;;;;;32.63;30.90;98586.81;4938100;29;20057;-77
2023/06/15 04:06:32;;;;;;;4.80;1.70;;;;;;;32.94;30.56;98589.59;4937256;29;20035;-77
2023/06/15 04:08:58;;;;;;;2.00;1.50;;;;;;;33.19;30.04;98582.63;4954771;28;20039;-77
2023/06/15 04:11:24;;;;;;;3.80;1.88;;;;;;;33.52;29.46;98583.16;4954676;29;20082;-78
2023/06/15 04:13:49;;;;;;;8.18;2.00;;;;;;;33.82;28.91;98581.53;4955786;28;20035;-77
2023/06/15 04:16:15;;;;;;;5.00;1.90;;;;;;;34.14;28.97;98586.59;4955856;28;20170;-77
2023/06/15 04:18:40;;;;;;;3.05;1.65;;;;;;;34.49;28.21;98586.78;4956020;28;20097;-77
2023/06/15 04:21:06;;;;;;;4.18;1.90;;;;;;;34.83;27.63;98591.53;4954555;29;20491;-77
2023/06/15 04:23:32;;;;;;;5.30;1.77;;;;;;;35.14;27.33;98590.22;4955672;28;20039;-77
2023/06/15 04:26:00;;;;;;;2.97;1.83;;;;;;;35.50;27.22;98592.69;4955530;28;20408;-78
2023/06/15 04:28:26;;;;;;;3.85;1.63;;;;;;;35.85;26.64;98589.94;4955430;28;20031;-77
2023/06/15 04:31:06;;;;;;;4.70;1.55;;;;;;;36.27;26.31;98593.84;4955900;28;20027;-78
2023/06/15 04:33:32;;;;;;;5.90;1.85;;;;;;;36.68;25.42;98597.97;4954413;29;20031;-78
2023/06/15 04:35:57;;;;;;;11.68;1.80;;;;;;;37.02;24.86;98603.22;4954162;29;20400;-78
2023/06/15 04:38:23;;;;;;;3.90;1.80;;;;;;;37.39;24.35;98603.50;4955171;28;20069;-78
2023/06/15 04:40:48;;;;;;;4.90;1.67;;;;;;;37.69;23.87;98595.97;4955161;28;20442;-78
2023/06/15 04:43:14;;;;;;;4.13;1.60;;;;;;;38.03;23.21;98595.56;4955042;28;20039;-78
2023/06/15 04:45:39;;;;;;;4.30;1.70;;;;;;;38.37;22.93;98597.94;4938155;29;20410;-78
2023/06/15 04:48:06;;;;;;;7.32;1.55;;;;;;;38.66;22.43;98602.25;4954669;28;20051;-78
2023/06/15 04:50:32;;;;;;;5.22;2.03;;;;;;;38.94;21.94;98607.66;4937858;29;20067;-78
2023/06/15 04:52:57;;;;;;;5.38;1.85;;;;;;;39.30;21.44;98606.84;4937767;29;20122;-78
2023/06/15 04:55:23;;;;;;;12.27;4.80;;;;;;;39.57;21.45;98607.84;4954717;28;20113;-78
2023/06/15 04:57:49;;;;;;;10.35;5.03;;;;;;;39.91;21.26;98609.13;4953569;29;20142;-78
2023/06/15 05:00:15;;;;;;;8.50;5.30;;;;;;;40.11;21.07;98614.06;4954823;28;20031;-78
2023/06/15 05:02:40;;;;;;;8.32;4.40;;;;;;;40.25;20.61;98607.66;4953887;28;20047;-78
2023/06/15 05:05:06;;;;;;;6.68;3.40;;;;;;;40.69;19.81;98608.59;4937727;29;20039;-78
2023/06/15 05:07:32;;;;;;;4.90;3.00;;;;;;;41.00;19.58;98616.69;4953544;29;20147;-76
2023/06/15 05:09:57;;;;;;;5.40;3.67;;;;;;;41.25;19.00;98613.47;4954809;28;20046;-79
2023/06/15 05:12:22;;;;;;;7.13;2.40;;;;;;;41.45;18.73;98612.84;4954966;28;20479;-78
2023/06/15 05:14:48;;;;;;;4.80;2.45;;;;;;;41.69;18.59;98617.75;4953381;29;20122;-78
2023/06/15 05:17:13;;;;;;;5.28;2.05;;;;;;;41.96;18.33;98607.56;4938133;29;20031;-79
2023/06/15 05:19:39;;;;;;;5.78;1.88;;;;;;;42.19;18.11;98613.59;4937691;29;20067;-77
2023/06/15 05:22:05;;;;;;;4.43;1.70;;;;;;;42.40;17.87;98612.81;4922102;29;20071;-79
2023/06/15 05:24:30;;;;;;;5.20;2.30;;;;;;;42.68;17.79;98607.66;4955009;28;20027;-78
2023/06/15 05:26:56;;;;;;;6.23;1.50;;;;;;;42.93;17.59;98602.31;4954966;28;20035;-78
2023/06/15 05:29:22;;;;;;;3.73;1.50;;;;;;;43.13;17.16;98608.97;4954451;28;20027;-80
2023/06/15 05:31:47;;;;;;;5.20;1.77;;;;;;;43.31;16.86;98615.88;4937715;29;20035;-79
2023/06/15 05:34:13;;;;;;;4.43;1.60;;;;;;;43.53;17.01;98614.72;4921734;29;20458;-79
2023/06/15 05:36:38;;;;;;;3.67;1.50;;;;;;;43.71;16.75;98617.28;4954420;28;20474;-78
2023/06/15 05:39:04;;;;;;;8.57;1.70;;;;;;;43.82;16.53;98620.41;4953199;29;20023;-79
2023/06/15 05:41:30;;;;;;;10.00;2.33;;;;;;;43.97;16.67;98617.00;4953503;29;20035;-78
2023/06/15 05:43:55;;;;;;;9.70;2.30;;;;;;;43.96;16.50;98615.38;4953496;29;20023;-78
2023/06/15 05:46:21;;;;;;;5.70;1.70;;;;;;;44.05;16.58;98621.59;4954393;28;20023;-78
2023/06/15 05:48:47;;;;;;;6.80;1.97;;;;;;;44.05;16.23;98620.78;4954500;28;20106;-80
2023/06/15 05:51:12;;;;;;;2.73;1.30;;;;;;;44.14;16.51;98627.00;4937337;29;20047;-81
2023/06/15 05:53:37;;;;;;;5.47;1.73;;;;;;;43.78;17.15;98627.72;4954246;28;20482;-78
2023/06/15 05:56:03;;;;;;;8.43;2.90;;;;;;;43.19;17.47;98624.06;4920959;29;20082;-78
2023/06/15 05:58:29;;;;;;;6.93;2.00;;;;;;;42.70;18.09;98632.84;4953034;28;20039;-79
2023/06/15 06:00:55;;;;;;;9.40;7.33;;;;;;;42.01;18.69;98631.22;4936670;29;20039;-79
2023/06/15 06:03:20;;;;;;;13.00;9.37;;;;;;;41.36;19.44;98623.78;4953302;28;20053;-78
2023/06/15 06:05:46;;;;;;;11.57;6.38;;;;;;;40.49;20.22;98629.19;4953724;29;20035;-79
2023/06/15 06:08:11;;;;;;;9.05;3.50;;;;;;;39.53;21.46;98623.22;4937057;29;20039;-82
2023/06/15 06:10:37;;;;;;;8.02;3.00;;;;;;;38.80;22.21;98623.25;4953709;29;20043;-80
2023/06/15 06:13:02;;;;;;;4.20;2.60;;;;;;;38.78;22.14;98614.53;4921174;29;20036;-79
2023/06/15 06:15:28;;;;;;;13.13;9.35;;;;;;;39.11;21.94;98622.56;4921408;29;20415;-84
2023/06/15 06:17:54;;;;;;;10.18;5.43;;;;;;;39.41;21.48;98615.56;4936945;29;20035;-79
2023/06/15 06:20:19;;;;;;;7.45;4.38;;;;;;;39.04;22.02;98621.03;4936942;29;20050;-79
2023/06/15 06:22:48;;;;;;;10.10;5.88;;;;;;;39.59;21.43;98611.84;4937390;29;20028;-83
2023/06/15 06:25:13;;;;;;;6.22;3.65;;;;;;;39.57;21.65;98619.56;4937277;29;20553;-81
2023/06/15 06:27:39;;;;;;;7.40;2.75;;;;;;;40.24;21.13;98617.00;4937813;29;20032;-79
2023/06/15 06:30:06;;;;;;;6.90;2.75;;;;;;;40.76;20.23;98613.63;4940762;29;20027;-80
2023/06/15 06:32:31;;;;;;;7.10;4.23;;;;;;;41.23;19.73;98620.06;4956733;29;20486;-81
2023/06/15 06:34:56;;;;;;;7.07;3.72;;;;;;;41.56;19.54;98622.31;4940422;29;20274;-79
2023/06/15 06:37:22;;;;;;;9.65;3.22;;;;;;;41.78;18.98;98630.66;4956534;29;20050;-80
2023/06/15 06:39:48;;;;;;;7.13;4.47;;;;;;;41.99;19.01;98614.28;4940477;29;20557;-80
2023/06/15 06:42:13;;;;;;;11.88;4.32;;;;;;;42.12;18.71;98618.75;4940583;29;20054;-80
2023/06/15 06:44:39;;;;;;;9.03;4.40;;;;;;;42.28;18.91;98627.25;4940546;29;20491;-80
2023/06/15 06:47:05;;;;;;;6.82;3.55;;;;;;;42.47;18.46;98624.88;4940241;29;20178;-80
2023/06/15 06:49:31;;;;;;;5.68;2.50;;;;;;;42.43;18.08;98632.19;4957211;28;20118;-81
2023/06/15 06:51:56;;;;;;;5.00;2.77;;;;;;;42.48;18.44;98621.00;4940012;29;20043;-81
2023/06/15 06:54:22;;;;;;;4.93;2.45;;;;;;;42.53;18.38;98622.75;4940386;29;20090;-80
2023/06/15 06:56:47;;;;;;;5.23;2.70;;;;;;;42.46;18.25;98627.97;4956241;29;20479;-81
2023/06/15 06:59:13;;;;;;;10.17;2.87;;;;;;;42.42;18.36;98627.03;4924256;29;20035;-81
2023/06/15 07:01:39;;;;;;;3.83;2.10;;;;;;;42.35;18.04;98633.00;4939959;29;20075;-80
2023/06/15 07:04:05;;;;;;;4.10;2.25;;;;;;;42.33;18.51;98624.31;4957185;28;20038;-79
2023/06/15 07:06:30;;;;;;;7.43;4.10;;;;;;;42.25;18.68;98628.72;4957195;28;20049;-79
2023/06/15 07:08:56;;;;;;;10.40;7.10;;;;;;;42.21;18.65;98629.72;4956174;29;20050;-80
2023/06/15 07:11:21;;;;;;;4.80;3.57;;;;;;;42.13;18.73;98631.38;4939839;29;20035;-80
2023/06/15 07:13:47;;;;;;;6.40;3.00;;;;;;;41.98;18.67;98626.41;4957385;28;20031;-81
2023/06/15 07:16:12;;;;;;;5.82;2.55;;;;;;;41.82;18.88;98621.47;4940390;29;20074;-81
2023/06/15 07:18:38;;;;;;;3.95;2.50;;;;;;;41.68;19.25;98624.38;4940209;29;20105;-79
2023/06/15 07:21:03;;;;;;;5.10;2.45;;;;;;;41.50;19.05;98622.81;4939216;29;20043;-81
2023/06/15 07:23:29;;;;;;;3.55;2.08;;;;;;;41.33;19.15;98623.66;4924364;29;20047;-80
2023/06/15 07:25:54;;;;;;;4.03;2.80;;;;;;;41.17;19.50;98606.88;4939836;29;20039;-83
2023/06/15 07:28:20;;;;;;;3.17;2.33;;;;;;;41.13;19.38;98622.34;4939996;29;20023;-80
2023/06/15 07:30:48;;;;;;;3.58;2.08;;;;;;;40.95;19.57;98610.59;4955454;29;20062;-81
2023/06/15 07:33:14;;;;;;;6.18;2.70;;;;;;;40.92;19.70;98612.03;4924524;29;20128;-82
2023/06/15 07:35:39;;;;;;;5.65;2.53;;;;;;;40.80;19.55;98603.63;4955627;29;20102;-82
2023/06/15 07:38:05;;;;;;;7.53;2.13;;;;;;;40.70;19.78;98599.28;4923881;29;20118;-83
2023/06/15 07:40:30;;;;;;;6.65;2.90;;;;;;;40.65;20.31;98602.16;4938351;29;20038;-79
2023/06/15 07:42:56;;;;;;;5.70;2.58;;;;;;;40.57;20.16;98595.56;4955665;29;20058;-80
2023/06/15 07:45:22;;;;;;;5.85;2.60;;;;;;;40.55;20.59;98599.72;4955778;29;20027;-80
2023/06/15 07:47:47;;;;;;;3.28;2.22;;;;;;;40.46;20.19;98603.25;4939438;29;20051;-79
2023/06/15 07:50:13;;;;;;;6.53;2.40;;;;;;;40.33;20.33;98598.72;4923253;29;20023;-80
2023/06/15 07:52:38;;;;;;;6.18;2.63;;;;;;;40.22;20.55;98587.25;4939726;29;20042;-80
2023/06/15 07:55:04;;;;;;;6.15;3.53;;;;;;;40.15;20.92;98587.72;4956405;28;20066;-80
2023/06/15 07:57:30;;;;;;;9.68;3.30;;;;;;;40.14;21.19;98588.03;4939124;29;20031;-81
2023/06/15 08:00:00;;;;;;;3.95;2.30;;;;;;;39.98;20.81;98582.19;4956438;28;20417;-79
2023/06/15 08:02:25;;;;;;;5.43;3.10;;;;;;;39.93;20.77;98588.56;4939269;29;20130;-81
2023/06/15 08:04:51;;;;;;;5.95;1.95;;;;;;;39.66;19.72;98586.03;4955740;29;20471;-80
2023/06/15 08:07:16;;;;;;;5.40;2.17;;;;;;;39.38;20.70;98584.25;4939287;29;20059;-81
2023/06/15 08:09:42;;;;;;;5.03;2.60;;;;;;;39.38;20.88;98589.69;4939280;29;20051;-79
2023/06/15 08:12:08;;;;;;;7.45;2.45;;;;;;;39.40;21.20;98589.38;4939506;29;20035;-80
2023/06/15 08:14:35;;;;;;;8.67;2.53;;;;;;;39.34;21.12;98591.44;4954828;29;20031;-80
2023/06/15 08:17:01;;;;;;;3.92;1.88;;;;;;;39.15;20.72;98590.81;4955975;28;20055;-80
2023/06/15 08:19:27;;;;;;;5.53;2.20;;;;;;;39.01;21.45;98577.19;4955060;29;20070;-79
2023/06/15 08:21:52;;;;;;;4.63;2.20;;;;;;;38.95;21.68;98584.72;4955076;29;20031;-80
2023/06/15 08:24:17;;;;;;;5.55;2.05;;;;;;;38.60;21.40;98580.81;4938983;29;20482;-83
2023/06/15 08:26:43;;;;;;;4.85;2.22;;;;;;;38.28;21.89;98585.31;4938535;29;20106;-82
2023/06/15 08:29:09;;;;;;;4.25;2.67;;;;;;;38.08;22.67;98594.66;4954682;29;20038;-81
2023/06/15 08:31:35;;;;;;;3.33;2.35;;;;;;;37.96;22.63;98592.47;4954697;29;20454;-81
2023/06/15 08:34:00;;;;;;;6.65;2.20;;;;;;;37.65;22.39;98592.97;4953977;29;20043;-80
2023/06/15 08:36:26;;;;;;;3.63;2.30;;;;;;;37.56;23.34;98590.16;4954243;29;20520;-83
2023/06/15 08:38:51;;;;;;;3.20;2.08;;;;;;;37.50;23.72;98594.06;4922572;29;20028;-82
2023/06/15 08:41:17;;;;;;;9.02;2.28;;;;;;;37.35;23.75;98588.88;4938164;29;20035;-81
2023/06/15 08:43:43;;;;;;;8.10;1.90;;;;;;;36.98;24.40;98591.31;4938639;29;20138;-80
2023/06/15 08:46:10;;;;;;;6.90;2.60;;;;;;;36.81;24.78;98586.38;4954007;29;20474;-80
2023/06/15 08:48:36;;;;;;;3.15;2.30;;;;;;;36.73;24.56;98582.41;4939061;29;20047;-80
2023/06/15 08:51:01;;;;;;;7.38;2.20;;;;;;;36.71;24.78;98592.75;4938302;29;20392;-81
2023/06/15 08:53:27;;;;;;;5.05;2.40;;;;;;;36.80;24.86;98586.69;4938111;29;20462;-80
2023/06/15 08:55:53;;;;;;;6.40;2.40;;;;;;;36.70;24.91;98584.88;4938575;29;20110;-80
2023/06/15 08:58:19;;;;;;;6.82;2.58;;;;;;;36.60;24.84;98582.31;4954032;29;20094;-80
2023/06/15 09:00:44;;;;;;;5.28;2.10;;;;;;;36.53;25.13;98585.38;4954262;28;20047;-82
2023/06/15 09:03:10;;;;;;;5.47;2.50;;;;;;;36.53;24.73;98591.63;4922501;29;20047;-79
2023/06/15 09:05:36;;;;;;;5.75;1.90;;;;;;;36.51;25.05;98582.16;4922061;29;20043;-81
2023/06/15 09:08:03;;;;;;;4.90;2.15;;;;;;;36.56;24.92;98593.78;4938491;29;20047;-82
2023/06/15 09:10:29;;;;;;;5.70;2.05;;;;;;;36.47;24.80;98590.09;4938029;29;20439;-81
2023/06/15 09:12:55;;;;;;;8.60;2.10;;;;;;;36.40;25.14;98585.00;4954373;29;20050;-81
2023/06/15 09:15:28;;;;;;;5.07;2.20;;;;;;;36.40;25.35;98592.34;4938079;29;20027;-80
2023/06/15 09:17:57;;;;;;;7.10;2.00;;;;;;;36.32;25.20;98580.19;4938810;29;20058;-79
2023/06/15 09:20:27;;;;;;;3.75;2.00;;;;;;;36.31;25.07;98575.06;4953831;29;20123;-80
2023/06/15 09:23:01;;;;;;;4.47;2.00;;;;;;;36.36;25.27;98583.16;4922540;29;20121;-80
2023/06/15 09:25:26;;;;;;;4.00;2.00;;;;;;;36.36;25.43;98577.72;4953280;29;20058;-81
2023/06/15 09:27:53;;;;;;;5.18;1.83;;;;;;;36.34;25.01;98572.59;4955131;28;20089;-80
2023/06/15 09:30:18;;;;;;;3.63;1.80;;;;;;;36.30;24.87;98571.53;4953141;29;20019;-80
2023/06/15 09:32:44;;;;;;;6.03;1.90;;;;;;;36.35;24.67;98573.38;4953188;29;20090;-80
2023/06/15 09:35:10;;;;;;;2.80;1.70;;;;;;;36.20;24.78;98568.94;4954574;28;20042;-80
2023/06/15 09:37:37;;;;;;;2.28;1.70;;;;;;;36.10;25.08;98564.41;4954483;29;20483;-81
2023/06/15 09:40:10;;;;;;;3.67;2.03;;;;;;;36.06;25.10;98566.09;4953175;29;20053;-83
2023/06/15 09:42:38;;;;;;;5.80;1.70;;;;;;;36.01;25.44;98555.28;4953560;29;20054;-81
2023/06/15 09:45:05;;;;;;;10.75;3.30;;;;;;;35.98;25.57;98574.88;4937782;29;20086;-81
2023/06/15 09:47:30;;;;;;;5.55;2.78;;;;;;;35.93;25.66;98566.78;4954430;28;20023;-80
2023/06/15 09:49:57;;;;;;;3.75;2.42;;;;;;;35.84;25.85;98566.59;4937238;29;20042;-83
2023/06/15 09:52:22;;;;;;;6.13;2.55;;;;;;;35.73;26.21;98555.00;4921370;29;20491;-82
2023/06/15 09:54:48;;;;;;;4.72;2.97;;;;;;;35.67;26.03;98556.94;4921269;29;20079;-82
2023/06/15 09:57:14;;;;;;;7.50;2.50;;;;;;;35.52;26.06;98551.69;4936990;29;20109;-80
2023/06/15 09:59:39;;;;;;;4.05;2.40;;;;;;;35.31;26.80;98556.47;4937330;29;20497;-80
2023/06/15 10:02:08;;;;;;;3.83;2.15;;;;;;;35.18;26.86;98555.19;4953794;28;20035;-81
2023/06/15 10:04:36;;;;;;;5.07;2.22;;;;;;;35.16;27.25;98551.97;4937565;29;20571;-83
2023/06/15 10:07:02;;;;;;;6.45;2.33;;;;;;;35.20;27.19;98553.00;4921664;29;20034;-81
2023/06/15 10:09:31;;;;;;;4.05;2.20;;;;;;;35.19;26.92;98551.41;4921275;29;20043;-81
2023/06/15 10:12:01;;;;;;;4.10;1.90;;;;;;;35.12;27.14;98537.34;4936970;29;20131;-81
2023/06/15 10:14:29;;;;;;;5.22;2.00;;;;;;;35.03;27.26;98537.16;4952984;29;20429;-82
2023/06/15 10:17:01;;;;;;;3.97;1.95;;;;;;;34.99;26.96;98529.84;4937274;29;20038;-80
2023/06/15 10:19:27;;;;;;;5.32;2.00;;;;;;;35.00;27.35;98534.16;4937364;29;20356;-80
2023/06/15 10:21:52;;;;;;;3.60;1.90;;;;;;;34.72;27.11;98536.50;4937401;29;20094;-82
2023/06/15 10:24:19;;;;;;;2.65;1.83;;;;;;;34.56;27.36;98528.47;4921295;28;20091;-80
2023/06/15 10:26:45;;;;;;;6.00;2.05;;;;;;;34.43;27.15;98527.19;4954274;28;20039;-80
2023/06/15 10:29:23;;;;;;;5.07;2.10;;;;;;;34.42;27.55;98528.28;4936871;29;20558;-81
2023/06/15 10:31:54;;;;;;;4.82;2.10;;;;;;;34.43;27.87;98534.50;4938028;29;20058;-80
2023/06/15 10:34:26;;;;;;;2.97;1.85;;;;;;;34.41;27.82;98523.13;4954080;28;20061;-80
2023/06/15 10:37:01;;;;;;;6.88;1.95;;;;;;;34.44;28.02;98530.69;4952992;28;20035;-79
2023/06/15 10:39:29;;;;;;;6.18;1.80;;;;;;;34.45;28.01;98528.81;4953817;28;20436;-81
2023/06/15 10:41:58;;;;;;;3.38;2.15;;;;;;;34.45;27.78;98523.41;4937261;29;20043;-81
2023/06/15 10:44:30;;;;;;;4.20;2.05;;;;;;;34.40;28.02;98527.75;4953992;28;20067;-80
2023/06/15 10:47:04;;;;;;;5.07;1.70;;;;;;;34.36;27.53;98521.25;4936889;29;20039;-81
2023/06/15 10:49:31;;;;;;;4.57;1.80;;;;;;;34.34;27.14;98518.03;4937134;28;20498;-82
2023/06/15 10:51:56;;;;;;;4.78;1.77;;;;;;;34.28;27.61;98513.72;4921690;29;20082;-80
2023/06/15 10:54:23;;;;;;;3.75;1.67;;;;;;;34.25;27.76;98519.69;4952731;29;20071;-81
2023/06/15 10:56:53;;;;;;;2.55;1.70;;;;;;;34.24;28.01;98513.47;4936793;29;20035;-81
2023/06/15 10:59:45;;;;;;;7.57;1.75;;;;;;;34.30;27.80;98516.97;4937238;29;20105;-79
2023/06/15 11:02:30;;;;;;;3.63;1.70;;;;;;;34.35;27.77;98513.41;4935831;29;20036;-81
2023/06/15 11:05:08;;;;;;;6.13;1.50;;;;;;;34.33;27.27;98515.59;4935552;29;20035;-81
2023/06/15 11:07:35;;;;;;;3.20;1.52;;;;;;;34.19;26.75;98504.50;4935996;29;20042;-80
2023/06/15 11:10:01;;;;;;;4.85;1.85;;;;;;;34.03;26.60;98507.31;4919523;28;20051;-80
2023/06/15 11:12:36;;;;;;;2.95;1.52;;;;;;;34.04;27.21;98511.63;4919942;29;20478;-80
2023/06/15 11:15:02;;;;;;;5.28;1.58;;;;;;;33.99;26.53;98497.31;4937885;29;20043;-79
2023/06/15 11:17:28;;;;;;;6.88;1.35;;;;;;;33.70;26.50;98498.75;4939100;29;20035;-80
2023/06/15 11:19:53;;;;;;;6.45;1.73;;;;;;;33.72;26.50;98501.97;4955171;28;20054;-84
2023/06/15 11:22:28;;;;;;;4.72;1.40;;;;;;;33.71;26.66;98497.63;4939322;29;20198;-80
2023/06/15 11:24:54;;;;;;;4.35;1.30;;;;;;;33.77;26.12;98487.63;4939938;29;20046;-83
2023/06/15 11:27:22;;;;;;;7.75;1.70;;;;;;;33.78;27.23;98483.00;4938773;29;20043;-81
2023/06/15 11:29:53;;;;;;;5.43;1.63;;;;;;;33.78;27.64;98481.13;4923980;29;20059;-79